Time;durP1;ratioP1;P1;durP2;ratioP2;P2;SDS_P1;SDS_P2;PMS_P1;PMS_P2;Temp;Humidity;BMP_temperature;BMP_pressure;BME280_temperature;BME280_humidity;BME280_pressure;Samples;Min_cycle;Max_cycle;Signal;HPM_P1;HPM_P2
2022/01/13 00:08:46;;;;;;;;;;;;;;;3.05;65.60;104074.72;5056059;28;20016;-84
2022/01/13 00:15:38;;;;;;;;;;;;;;;3.08;65.50;104067.28;4970056;28;19926;-83
2022/01/13 00:18:51;;;;;;;;;;;;;;;3.04;65.46;104075.47;4899331;29;20415;-83
2022/01/13 00:28:24;;;;;;;;;;;;;;;3.05;65.31;104064.31;4807472;29;19957;-84
2022/01/13 00:34:27;;;;;;;;;;;;;;;3.06;65.25;104058.31;4805833;29;20024;-83
2022/01/13 00:53:47;;;;;;;;;;;;;;;3.16;65.05;104057.75;4801892;29;20035;-83
2022/01/13 00:56:58;;;;;;;;;;;;;;;3.22;65.01;104058.47;4927390;29;19973;-83
2022/01/13 01:03:10;;;;;;;;;;;;;;;3.18;64.99;104071.88;4954773;29;19954;-83
2022/01/13 01:06:26;;;;;;;;;;;;;;;3.20;64.95;104066.13;4924285;29;19926;-82
2022/01/13 01:10:02;;;;;;;;;;;;;;;3.16;64.93;104069.09;4892091;29;20064;-82
2022/01/13 01:13:17;;;;;;;;;;;;;;;3.16;64.89;104074.31;4848258;29;19932;-82
2022/01/13 01:19:44;;;;;;;;;;;;;;;3.19;64.85;104085.09;4806963;29;20044;-82
2022/01/13 01:29:30;;;;;;;;;;;;;;;3.29;64.79;104086.16;4841578;29;20310;-83
2022/01/13 01:41:49;;;;;;;;;;;;;;;3.28;64.80;104087.84;4817658;29;20081;-83
2022/01/13 01:54:42;;;;;;;;;;;;;;;3.35;64.75;104094.69;4769034;30;19988;-83
2022/01/13 01:57:52;;;;;;;;;;;;;;;3.29;64.76;104086.16;4731543;30;19992;-83
2022/01/13 02:01:24;;;;;;;;;;;;;;;3.30;64.74;104088.03;4742362;30;20009;-83
2022/01/13 02:07:58;;;;;;;;;;;;;;;3.33;64.68;104076.28;4809394;29;19932;-83
2022/01/13 02:11:20;;;;;;;;;;;;;;;3.37;64.66;104080.16;4805277;29;19925;-83
2022/01/13 02:27:51;;;;;;;;;;;;;;;3.39;64.59;104063.06;4844414;29;20623;-82
2022/01/13 02:34:50;;;;;;;;;;;;;;;3.37;64.56;104055.06;4844117;29;20340;-83
2022/01/13 02:38:03;;;;;;;;;;;;;;;3.43;64.55;104049.63;4849539;29;20546;-83
2022/01/13 02:41:23;;;;;;;;;;;;;;;3.37;64.56;104044.66;4861834;29;19959;-83
2022/01/13 02:57:23;;;;;;;;;;;;;;;3.40;64.50;104044.06;4844136;29;19931;-83
2022/01/13 03:07:34;;;;;;;;;;;;;;;3.41;64.46;104040.72;4876015;29;19956;-83
2022/01/13 03:11:11;;;;;;;;;;;;;;;3.40;64.47;104033.63;4844821;29;20262;-82
2022/01/13 03:14:37;;;;;;;;;;;;;;;3.38;64.47;104033.44;4845696;29;19982;-83
2022/01/13 03:17:53;;;;;;;;;;;;;;;3.38;64.46;104035.13;4866017;29;19927;-82
2022/01/13 03:21:07;;;;;;;;;;;;;;;3.32;64.47;104035.34;4868068;29;20010;-82
2022/01/13 03:30:25;;;;;;;;;;;;;;;3.33;64.42;104031.09;4862068;29;20415;-82
2022/01/13 03:36:31;;;;;;;;;;;;;;;3.40;64.40;104020.59;4895233;29;19954;-82
2022/01/13 03:39:37;;;;;;;;;;;;;;;3.39;64.40;104014.47;4898758;29;20379;-82
2022/01/13 03:42:48;;;;;;;;;;;;;;;3.40;64.40;104018.00;4857429;29;19924;-82
2022/01/13 03:52:12;;;;;;;;;;;;;;;3.40;64.38;104010.19;4869578;29;20028;-82
2022/01/13 03:55:32;;;;;;;;;;;;;;;3.38;64.36;104016.91;4863632;29;19924;-83
2022/01/13 04:07:51;;;;;;;;;;;;;;;3.40;64.33;104020.59;4860986;29;19965;-82
2022/01/13 04:24:38;;;;;;;;;;;;;;;3.52;64.28;104013.28;4877430;29;19987;-82
2022/01/13 04:45:04;;;;;;;;;;;;;;;3.45;64.27;104029.91;4969718;28;19929;-84
2022/01/13 04:51:28;;;;;;;;;;;;;;;3.47;64.24;104031.00;4994117;28;20035;-83
2022/01/13 04:54:22;;;;;;;;;;;;;;;3.46;64.24;104036.94;4959831;28;19977;-84
2022/01/13 04:57:25;;;;;;;;;;;;;;;3.50;64.22;104031.34;4992457;28;19960;-84
2022/01/13 05:00:58;;;;;;;;;;;;;;;3.48;64.21;104021.50;4979091;28;19926;-83
2022/01/13 05:04:21;;;;;;;;;;;;;;;3.41;64.20;104020.78;4954914;29;19918;-82
2022/01/13 05:07:23;;;;;;;;;;;;;;;3.45;64.20;104015.94;4827948;29;19925;-82
2022/01/13 05:10:30;;;;;;;;;;;;;;;3.45;64.20;104013.31;4821902;29;19928;-83
2022/01/13 05:20:14;;;;;;;;;;;;;;;3.41;64.19;104025.06;4823526;29;19932;-83
2022/01/13 05:23:20;;;;;;;;;;;;;;;3.38;64.20;104019.50;4825047;29;19928;-83
2022/01/13 05:26:33;;;;;;;;;;;;;;;3.34;64.20;104023.44;4804453;29;19967;-83
2022/01/13 06:30:43;;;;;;;;;;;;;;;3.52;64.10;104011.59;5051928;28;20011;-79
2022/01/13 06:33:10;;;;;;;;;;;;;;;3.58;64.08;104020.13;5039093;28;19924;-80
2022/01/13 06:35:36;;;;;;;;;;;;;;;3.61;64.10;104023.84;5038897;28;19958;-80
2022/01/13 06:38:01;;;;;;;;;;;;;;;3.51;64.12;104017.59;5038964;28;19920;-81
2022/01/13 06:40:26;;;;;;;;;;;;;;;3.66;64.10;104018.41;5037784;28;19917;-80
2022/01/13 06:42:52;;;;;;;;;;;;;;;3.65;64.11;104020.81;5038828;28;20368;-78
2022/01/13 06:45:17;;;;;;;;;;;;;;;3.62;64.13;104024.03;5038083;28;20004;-80
2022/01/13 06:47:42;;;;;;;;;;;;;;;3.66;64.12;104028.81;5038673;28;19921;-79
2022/01/13 06:50:08;;;;;;;;;;;;;;;3.55;64.14;104030.19;5038633;28;19987;-80
2022/01/13 06:52:54;;;;;;;;;;;;;;;3.66;64.13;104027.91;5038409;28;19928;-80
2022/01/13 06:55:19;;;;;;;;;;;;;;;3.66;64.12;104028.81;5056321;28;20273;-80
2022/01/13 06:57:46;;;;;;;;;;;;;;;3.75;64.12;104029.88;5056248;28;19921;-82
2022/01/13 07:00:11;;;;;;;;;;;;;;;3.74;64.15;104030.66;5031054;28;19920;-82
2022/01/13 07:02:42;;;;;;;;;;;;;;;3.75;64.14;104032.50;5037800;28;19931;-80
2022/01/13 07:05:07;;;;;;;;;;;;;;;3.80;64.15;104030.41;5037960;28;19925;-82
2022/01/13 07:07:34;;;;;;;;;;;;;;;3.83;64.15;104035.97;5055644;28;20313;-81
2022/01/13 07:09:59;;;;;;;;;;;;;;;3.75;64.16;104035.09;5038532;28;20608;-83
2022/01/13 07:12:25;;;;;;;;;;;;;;;3.78;64.16;104038.06;5037654;28;19921;-80
2022/01/13 07:14:50;;;;;;;;;;;;;;;3.80;64.13;104040.84;5035710;28;19925;-79
2022/01/13 07:17:17;;;;;;;;;;;;;;;3.83;64.15;104035.97;5021401;28;19932;-79
2022/01/13 07:19:45;;;;;;;;;;;;;;;3.85;64.14;104036.16;5037721;28;19964;-80
2022/01/13 07:22:12;;;;;;;;;;;;;;;3.80;64.17;104035.63;5037040;28;19925;-84
2022/01/13 07:24:37;;;;;;;;;;;;;;;3.81;64.16;104034.88;5036744;28;19931;-79
2022/01/13 07:27:03;;;;;;;;;;;;;;;3.87;64.14;104037.25;5037815;28;19921;-79
2022/01/13 07:29:29;;;;;;;;;;;;;;;3.88;64.16;104037.41;5036565;28;19932;-81
2022/01/13 07:31:55;;;;;;;;;;;;;;;3.87;64.16;104040.78;5033895;28;19979;-79
2022/01/13 07:34:21;;;;;;;;;;;;;;;3.91;64.16;104039.47;5034038;28;19925;-78
2022/01/13 07:36:46;;;;;;;;;;;;;;;3.90;64.17;104040.19;5035436;28;19990;-81
2022/01/13 07:39:12;;;;;;;;;;;;;;;3.84;64.20;104044.72;5034316;28;20354;-79
2022/01/13 07:41:38;;;;;;;;;;;;;;;3.95;64.19;104042.59;5031570;28;19921;-81
2022/01/13 07:44:03;;;;;;;;;;;;;;;3.91;64.19;104040.38;5032103;28;19921;-80
2022/01/13 07:46:29;;;;;;;;;;;;;;;4.04;64.18;104039.16;5032208;28;20051;-80
2022/01/13 07:48:54;;;;;;;;;;;;;;;4.09;64.20;104046.75;5032583;28;19929;-76
2022/01/13 07:51:20;;;;;;;;;;;;;;;4.16;64.20;104042.25;5026946;28;20280;-76
2022/01/13 07:53:53;;;;;;;;;;;;;;;4.04;64.22;104060.03;5031754;28;20350;-82
2022/01/13 07:56:18;;;;;;;;;;;;;;;3.95;64.26;104058.22;5017085;28;19930;-81
2022/01/13 07:58:46;;;;;;;;;;;;;;;3.91;64.27;104057.72;5033460;28;19944;-80
2022/01/13 08:01:11;;;;;;;;;;;;;;;3.89;64.29;104057.53;5033980;28;19932;-83
2022/01/13 08:03:36;;;;;;;;;;;;;;;3.87;64.31;104056.44;5033345;28;19921;-82
2022/01/13 08:06:04;;;;;;;;;;;;;;;3.88;64.32;104055.66;5033963;28;19983;-80
2022/01/13 08:08:29;;;;;;;;;;;;;;;3.94;64.33;104053.75;5033335;28;19921;-84
2022/01/13 08:10:55;;;;;;;;;;;;;;;3.92;64.34;104054.34;5036975;28;19932;-80
2022/01/13 08:13:26;;;;;;;;;;;;;;;3.87;64.35;104051.22;5037663;28;20479;-83
2022/01/13 08:15:54;;;;;;;;;;;;;;;3.93;64.36;104053.59;5054430;28;19982;-80
2022/01/13 08:21:03;;;;;;;;;;;;;;;3.97;64.36;104057.50;5036280;28;19967;-80
2022/01/13 08:23:30;;;;;;;;;;;;;;;3.98;64.37;104059.31;5054683;28;19920;-80
2022/01/13 08:29:12;;;;;;;;;;;;;;;3.99;64.38;104053.38;5033280;28;19928;-80
2022/01/13 08:31:39;;;;;;;;;;;;;;;3.97;64.39;104052.28;5029355;28;19921;-80
2022/01/13 08:34:08;;;;;;;;;;;;;;;3.99;64.40;104059.50;5016388;28;20415;-81
2022/01/13 08:36:33;;;;;;;;;;;;;;;4.03;64.39;104058.19;5033415;28;19921;-80
2022/01/13 08:38:58;;;;;;;;;;;;;;;4.05;64.41;104061.91;5032970;28;19928;-82
2022/01/13 08:41:23;;;;;;;;;;;;;;;4.02;64.43;104065.06;5033419;28;20007;-81
2022/01/13 08:43:51;;;;;;;;;;;;;;;4.04;64.44;104075.66;5034907;28;20027;-81
2022/01/13 08:46:17;;;;;;;;;;;;;;;4.08;64.45;104077.88;5033502;28;19925;-81
2022/01/13 08:48:42;;;;;;;;;;;;;;;4.06;64.48;104088.16;5033434;28;20385;-82
2022/01/13 08:51:07;;;;;;;;;;;;;;;4.05;64.48;104086.28;5032751;28;19964;-81
2022/01/13 08:53:41;;;;;;;;;;;;;;;4.05;64.50;104093.19;5032888;28;20329;-81
2022/01/13 08:56:08;;;;;;;;;;;;;;;4.18;64.51;104088.63;5034838;28;19925;-82
2022/01/13 08:58:40;;;;;;;;;;;;;;;4.19;64.54;104089.53;5033134;28;19940;-81
2022/01/13 09:01:07;;;;;;;;;;;;;;;4.19;64.56;104092.16;5032661;28;19936;-82
2022/01/13 09:03:36;;;;;;;;;;;;;;;4.22;64.59;104089.91;5032411;28;19921;-80
2022/01/13 09:06:02;;;;;;;;;;;;;;;4.31;64.61;104094.47;5032948;28;19925;-80
2022/01/13 09:08:27;;;;;;;;;;;;;;;4.40;64.63;104091.06;5033245;28;20019;-81
2022/01/13 09:10:54;;;;;;;;;;;;;;;4.37;64.68;104090.72;5034764;28;20360;-81
2022/01/13 09:13:20;;;;;;;;;;;;;;;4.38;64.72;104093.50;5038478;28;19921;-81
2022/01/13 09:15:57;;;;;;;;;;;;;;;4.38;64.79;104093.50;5039706;28;19967;-84
2022/01/13 09:20:57;;;;;;;;;;;;;;;4.37;64.92;104090.72;5036025;28;19925;-81
2022/01/13 09:23:28;;;;;;;;;;;;;;;4.43;64.98;104087.09;5033303;28;20432;-82
2022/01/13 09:25:54;;;;;;;;;;;;;;;4.44;65.05;104085.41;5033263;28;20380;-82
2022/01/13 09:28:20;;;;;;;;;;;;;;;4.44;65.16;104090.63;5036308;28;20000;-83
2022/01/13 09:30:45;;;;;;;;;;;;;;;4.41;65.26;104091.25;5037892;28;20369;-82
2022/01/13 09:33:11;;;;;;;;;;;;;;;4.39;65.34;104084.91;5037882;28;19921;-81
2022/01/13 09:35:39;;;;;;;;;;;;;;;4.48;65.42;104082.41;5034832;28;19965;-83
2022/01/13 09:38:04;;;;;;;;;;;;;;;4.54;65.50;104082.16;5036548;28;19921;-80
2022/01/13 09:40:29;;;;;;;;;;;;;;;4.56;65.61;104086.78;5036114;28;19932;-83
2022/01/13 09:42:55;;;;;;;;;;;;;;;4.65;65.71;104076.47;5036895;28;19925;-83
2022/01/13 09:45:21;;;;;;;;;;;;;;;4.61;65.90;104085.63;5037487;28;19925;-82
2022/01/13 09:47:47;;;;;;;;;;;;;;;4.67;66.05;104082.78;5037284;28;20003;-82
2022/01/13 09:50:15;;;;;;;;;;;;;;;4.73;66.37;104090.38;5036452;28;20046;-81
2022/01/13 09:52:42;;;;;;;;;;;;;;;4.71;66.62;104081.44;5037134;28;19929;-82
2022/01/13 09:55:08;;;;;;;;;;;;;;;4.67;66.74;104090.59;5037612;28;20161;-81
2022/01/13 09:57:33;;;;;;;;;;;;;;;4.70;66.86;104085.72;5035213;28;19979;-82
2022/01/13 10:00:00;;;;;;;;;;;;;;;4.73;67.04;104079.94;5035995;28;19956;-80
2022/01/13 10:02:26;;;;;;;;;;;;;;;4.72;67.28;104088.50;5035347;28;19952;-81
2022/01/13 10:04:53;;;;;;;;;;;;;;;4.82;67.31;104084.50;5035690;28;19957;-82
2022/01/13 10:07:40;;;;;;;;;;;;;;;4.89;67.52;104082.56;5036780;28;20042;-81
2022/01/13 10:10:07;;;;;;;;;;;;;;;4.92;67.93;104077.69;5036296;28;19928;-82
2022/01/13 10:12:50;;;;;;;;;;;;;;;4.85;68.40;104083.91;5034724;28;19921;-81
2022/01/13 10:18:01;;;;;;;;;;;;;;;4.99;68.87;104081.13;5036118;28;19932;-81
2022/01/13 10:20:27;;;;;;;;;;;;;;;4.89;69.44;104078.25;5034901;28;19921;-81
2022/01/13 10:23:07;;;;;;;;;;;;;;;5.00;69.76;104077.78;5035892;28;19917;-80
2022/01/13 10:25:34;;;;;;;;;;;;;;;5.06;70.46;104068.75;5036678;28;19921;-80
2022/01/13 10:28:15;;;;;;;;;;;;;;;5.03;71.84;104069.34;5035216;28;19925;-80
2022/01/13 10:30:45;;;;;;;;;;;;;;;5.13;72.41;104064.38;5035541;28;19925;-81
2022/01/13 10:33:38;;;;;;;;;;;;;;;5.11;73.14;104065.91;5035261;28;20011;-82
2022/01/13 10:36:09;;;;;;;;;;;;;;;5.16;75.05;104067.31;5033662;28;19920;-81
2022/01/13 10:38:54;;;;;;;;;;;;;;;5.23;77.31;104066.28;5033821;28;19921;-81
2022/01/13 10:41:30;;;;;;;;;;;;;;;5.34;78.94;104064.84;5035004;28;19979;-81
2022/01/13 10:44:18;;;;;;;;;;;;;;;5.26;81.05;104066.63;5051441;28;20259;-82
2022/01/13 10:47:03;;;;;;;;;;;;;;;5.28;82.57;104057.25;5015507;28;19956;-82
2022/01/13 10:49:35;;;;;;;;;;;;;;;5.24;84.35;104056.78;5014770;28;19964;-81
2022/01/13 10:52:18;;;;;;;;;;;;;;;5.32;85.74;104061.16;5016114;28;20432;-80
2022/01/13 10:54:43;;;;;;;;;;;;;;;5.34;87.22;104055.31;5015178;28;19918;-81
2022/01/13 10:57:15;;;;;;;;;;;;;;;5.24;89.69;104048.94;5015140;28;19929;-80
2022/01/13 10:59:40;;;;;;;;;;;;;;;5.30;90.96;104047.91;5015380;28;20358;-80
2022/01/13 11:02:10;;;;;;;;;;;;;;;5.35;92.47;104046.72;5040069;28;19933;-81
2022/01/13 11:04:35;;;;;;;;;;;;;;;5.29;94.13;104048.66;5055056;28;20366;-80
2022/01/13 11:07:13;;;;;;;;;;;;;;;5.35;95.51;104040.59;5047590;28;19925;-80
2022/01/13 11:09:45;;;;;;;;;;;;;;;5.38;97.53;104041.81;5034680;28;19921;-80
2022/01/13 11:12:11;;;;;;;;;;;;;;;5.43;98.88;104049.25;5034979;28;19921;-80
2022/01/13 11:14:43;;;;;;;;;;;;;;;5.31;100.00;104041.91;5034725;28;20003;-81
2022/01/13 11:17:11;;;;;;;;;;;;;;;5.31;100.00;104043.59;5034814;28;19991;-81
2022/01/13 11:19:39;;;;;;;;;;;;;;;5.37;100.00;104045.19;5034445;28;19925;-81
2022/01/13 11:22:07;;;;;;;;;;;;;;;5.54;100.00;104038.25;5033849;28;19972;-82
2022/01/13 11:24:32;;;;;;;;;;;;;;;5.46;100.00;104028.69;5035764;28;19925;-82
2022/01/13 11:26:59;;;;;;;;;;;;;;;5.48;100.00;104032.38;5034792;28;20424;-81
2022/01/13 11:29:25;;;;;;;;;;;;;;;5.45;100.00;104025.09;5033154;28;19983;-81
2022/01/13 11:31:50;;;;;;;;;;;;;;;5.46;100.00;104024.34;5034534;28;19925;-82
2022/01/13 11:34:16;;;;;;;;;;;;;;;5.53;100.00;104024.28;5036142;28;19921;-81
2022/01/13 11:36:42;;;;;;;;;;;;;;;5.52;100.00;104025.03;5034306;28;20011;-81
2022/01/13 11:39:07;;;;;;;;;;;;;;;5.57;100.00;104021.19;5034903;28;19929;-82
2022/01/13 11:41:33;;;;;;;;;;;;;;;5.57;100.00;104020.28;5034326;28;19928;-81
2022/01/13 11:44:17;;;;;;;;;;;;;;;5.62;100.00;104018.16;5034091;28;20489;-83
2022/01/13 11:46:46;;;;;;;;;;;;;;;5.56;100.00;104011.53;5034510;28;19921;-82
2022/01/13 11:49:25;;;;;;;;;;;;;;;5.61;100.00;103998.94;5034584;28;19921;-82
2022/01/13 11:52:11;;;;;;;;;;;;;;;5.72;100.00;103985.31;5034744;28;19925;-81
2022/01/13 11:54:37;;;;;;;;;;;;;;;5.63;100.00;103976.50;5035496;28;20016;-81
2022/01/13 11:57:22;;;;;;;;;;;;;;;5.77;100.00;103970.13;5034958;28;19925;-82
2022/01/13 11:59:56;;;;;;;;;;;;;;;5.78;100.00;103955.34;5034177;28;19925;-82
2022/01/13 12:02:21;;;;;;;;;;;;;;;5.72;100.00;103956.56;5034194;28;19921;-80
2022/01/13 12:05:09;;;;;;;;;;;;;;;5.64;100.00;103944.38;5035679;28;20008;-81
2022/01/13 12:07:38;;;;;;;;;;;;;;;5.62;100.00;103938.03;5034963;28;19921;-81
2022/01/13 12:10:06;;;;;;;;;;;;;;;5.62;100.00;103924.03;5032839;28;19921;-82
2022/01/13 12:12:34;;;;;;;;;;;;;;;5.60;100.00;103910.81;5032998;28;20065;-82
2022/01/13 12:15:15;;;;;;;;;;;;;;;5.62;100.00;103897.91;5048195;28;19959;-80
2022/01/13 12:17:52;;;;;;;;;;;;;;;5.60;100.00;103886.38;5055226;28;20023;-81
2022/01/13 12:20:43;;;;;;;;;;;;;;;5.71;100.00;103881.47;5054921;28;19924;-83
2022/01/13 12:23:28;;;;;;;;;;;;;;;5.62;100.00;103875.28;5046947;28;19928;-82
2022/01/13 12:25:53;;;;;;;;;;;;;;;5.64;100.00;103873.78;5035576;28;19921;-84
2022/01/13 12:28:20;;;;;;;;;;;;;;;5.65;100.00;103865.16;5034928;28;20020;-81
2022/01/13 12:31:08;;;;;;;;;;;;;;;5.69;100.00;103856.88;5034129;28;20004;-80
2022/01/13 12:33:35;;;;;;;;;;;;;;;5.78;100.00;103845.50;5035884;28;19964;-80
2022/01/13 12:36:00;;;;;;;;;;;;;;;5.78;100.00;103845.50;5039594;28;19924;-81
2022/01/13 12:38:27;;;;;;;;;;;;;;;5.88;100.00;103840.47;5054559;28;20035;-82
2022/01/13 12:41:02;;;;;;;;;;;;;;;5.77;100.00;103834.13;5029929;28;19925;-84
2022/01/13 12:43:48;;;;;;;;;;;;;;;5.85;100.00;103827.06;5046354;28;19921;-82
2022/01/13 12:46:18;;;;;;;;;;;;;;;5.79;100.00;103827.34;5036410;28;19921;-83
2022/01/13 12:48:45;;;;;;;;;;;;;;;5.97;100.00;103820.53;5037893;28;19957;-81
2022/01/13 12:51:14;;;;;;;;;;;;;;;5.88;100.00;103816.94;5040324;28;19921;-85
2022/01/13 12:53:39;;;;;;;;;;;;;;;5.77;100.00;103820.16;5036985;28;19917;-84
2022/01/13 12:56:04;;;;;;;;;;;;;;;5.80;100.00;103817.84;5035389;28;19952;-82
2022/01/13 12:58:35;;;;;;;;;;;;;;;5.79;100.00;103826.44;5018335;28;20016;-83
2022/01/13 13:01:08;;;;;;;;;;;;;;;5.80;100.00;103812.63;5021406;28;19925;-84
2022/01/13 13:03:36;;;;;;;;;;;;;;;5.79;100.00;103813.38;5018249;28;19949;-82
2022/01/13 13:06:12;;;;;;;;;;;;;;;5.69;100.00;103812.44;5018394;28;19921;-83
2022/01/13 13:08:43;;;;;;;;;;;;;;;5.78;100.00;103806.28;5018525;28;19948;-83
2022/01/13 13:11:08;;;;;;;;;;;;;;;5.78;100.00;103798.44;5015725;28;19955;-84
2022/01/13 13:13:40;;;;;;;;;;;;;;;5.82;100.00;103798.91;5015422;28;20270;-80
2022/01/13 13:16:10;;;;;;;;;;;;;;;5.83;100.00;103795.53;5020192;28;19956;-81
2022/01/13 13:18:35;;;;;;;;;;;;;;;5.88;100.00;103801.25;5035855;28;19925;-82
2022/01/13 13:21:02;;;;;;;;;;;;;;;5.80;100.00;103796.94;5037056;28;19925;-81
2022/01/13 13:23:31;;;;;;;;;;;;;;;5.85;100.00;103794.00;5033794;28;19921;-83
2022/01/13 13:25:58;;;;;;;;;;;;;;;5.86;100.00;103794.94;5035076;28;19936;-84
2022/01/13 13:28:33;;;;;;;;;;;;;;;5.81;100.00;103790.91;5033825;28;19928;-81
2022/01/13 13:31:00;;;;;;;;;;;;;;;5.85;100.00;103798.31;5025324;28;20368;-83
2022/01/13 13:33:31;;;;;;;;;;;;;;;5.89;100.00;103793.56;5016588;28;19921;-82
2022/01/13 13:36:04;;;;;;;;;;;;;;;6.00;100.00;103781.59;5016604;28;19983;-82
2022/01/13 13:38:30;;;;;;;;;;;;;;;5.79;100.00;103795.06;5036273;28;19922;-85
2022/01/13 13:40:55;;;;;;;;;;;;;;;5.78;100.00;103793.22;5043132;28;19931;-82
2022/01/13 13:43:21;;;;;;;;;;;;;;;5.80;100.00;103790.00;5065345;28;19952;-82
2022/01/13 13:45:46;;;;;;;;;;;;;;;5.81;100.00;103791.84;5049935;28;19921;-81
2022/01/13 13:48:11;;;;;;;;;;;;;;;5.73;100.00;103785.84;5027942;28;20277;-82
2022/01/13 13:50:37;;;;;;;;;;;;;;;5.69;100.00;103782.75;5032120;28;20384;-80
2022/01/13 13:53:12;;;;;;;;;;;;;;;5.68;100.00;103787.03;5054787;28;20284;-80
2022/01/13 13:55:38;;;;;;;;;;;;;;;5.73;100.00;103785.84;5036231;28;19917;-82
2022/01/13 13:58:04;;;;;;;;;;;;;;;5.74;100.00;103786.75;5036274;28;19928;-81
2022/01/13 14:00:30;;;;;;;;;;;;;;;5.69;100.00;103786.28;5036488;28;20260;-82
2022/01/13 14:02:59;;;;;;;;;;;;;;;5.65;100.00;103781.50;5036080;28;20277;-84
2022/01/13 14:05:37;;;;;;;;;;;;;;;5.71;100.00;103782.13;5068875;28;20514;-80
2022/01/13 14:08:07;;;;;;;;;;;;;;;5.75;100.00;103784.28;5035741;28;19952;-83
2022/01/13 14:10:32;;;;;;;;;;;;;;;5.78;100.00;103777.50;5035372;28;19925;-84
2022/01/13 14:13:03;;;;;;;;;;;;;;;5.75;100.00;103789.53;5026650;28;19917;-83
2022/01/13 14:15:36;;;;;;;;;;;;;;;5.63;100.00;103790.88;5038865;28;19921;-81
2022/01/13 14:18:08;;;;;;;;;;;;;;;5.68;100.00;103793.97;5035431;28;20007;-83
2022/01/13 14:20:34;;;;;;;;;;;;;;;5.65;100.00;103796.25;5035745;28;20250;-79
2022/01/13 14:23:01;;;;;;;;;;;;;;;5.68;100.00;103797.50;5038885;28;19947;-83
2022/01/13 14:25:28;;;;;;;;;;;;;;;5.69;100.00;103790.59;5038999;28;19925;-82
2022/01/13 14:27:54;;;;;;;;;;;;;;;5.67;100.00;103800.91;5040145;28;19927;-81
2022/01/13 14:30:33;;;;;;;;;;;;;;;5.60;100.00;103800.09;5038242;28;19929;-80
2022/01/13 14:33:17;;;;;;;;;;;;;;;5.64;100.00;103784.88;5057397;28;19964;-83
2022/01/13 14:35:45;;;;;;;;;;;;;;;5.53;100.00;103791.63;5064207;28;19979;-80
2022/01/13 14:38:11;;;;;;;;;;;;;;;5.58;100.00;103797.31;5040475;28;20436;-81
2022/01/13 14:40:47;;;;;;;;;;;;;;;5.47;100.00;103803.09;5038376;28;19962;-83
2022/01/13 14:43:18;;;;;;;;;;;;;;;5.50;100.00;103798.19;5038600;28;19928;-81
2022/01/13 14:45:45;;;;;;;;;;;;;;;5.51;100.00;103802.66;5022365;28;19924;-83
2022/01/13 14:48:11;;;;;;;;;;;;;;;5.52;100.00;103796.69;5039038;28;20022;-81
2022/01/13 14:50:36;;;;;;;;;;;;;;;5.45;100.00;103794.19;5038138;28;19958;-82
2022/01/13 14:53:02;;;;;;;;;;;;;;;5.47;100.00;103787.44;5038558;28;19931;-84
2022/01/13 14:55:27;;;;;;;;;;;;;;;5.50;100.00;103790.34;5038872;28;19917;-83
2022/01/13 14:57:55;;;;;;;;;;;;;;;5.44;100.00;103790.66;5039748;28;19921;-83
2022/01/13 15:00:20;;;;;;;;;;;;;;;5.44;100.00;103780.22;5038083;28;20064;-82
2022/01/13 15:02:48;;;;;;;;;;;;;;;5.35;100.00;103780.16;5039017;28;19924;-82
2022/01/13 15:05:17;;;;;;;;;;;;;;;5.42;100.00;103776.50;5057082;28;19925;-83
2022/01/13 15:07:42;;;;;;;;;;;;;;;5.34;100.00;103773.09;5055734;28;19970;-84
2022/01/13 15:10:08;;;;;;;;;;;;;;;5.36;100.00;103773.25;5055934;28;19925;-80
2022/01/13 15:12:33;;;;;;;;;;;;;;;5.37;100.00;103773.41;5056266;28;19921;-82
2022/01/13 15:14:58;;;;;;;;;;;;;;;5.40;100.00;103778.03;5038781;28;19920;-83
2022/01/13 15:17:24;;;;;;;;;;;;;;;5.37;100.00;103780.34;5056741;28;19928;-80
2022/01/13 15:19:51;;;;;;;;;;;;;;;5.37;100.00;103777.72;5038612;28;20386;-81
2022/01/13 15:22:18;;;;;;;;;;;;;;;5.40;100.00;103781.56;5038472;28;19920;-82
2022/01/13 15:24:44;;;;;;;;;;;;;;;5.28;100.00;103780.28;5037097;28;19924;-82
2022/01/13 15:27:10;;;;;;;;;;;;;;;5.33;100.00;103786.94;5038423;28;20650;-80
2022/01/13 15:29:36;;;;;;;;;;;;;;;5.31;100.00;103783.22;5062769;28;19924;-83
2022/01/13 15:32:03;;;;;;;;;;;;;;;5.34;100.00;103788.75;5058598;28;20015;-82
2022/01/13 15:34:28;;;;;;;;;;;;;;;5.33;100.00;103791.22;5037858;28;19960;-83
2022/01/13 15:36:54;;;;;;;;;;;;;;;5.29;100.00;103795.22;5039175;28;19920;-83
2022/01/13 15:39:19;;;;;;;;;;;;;;;5.33;100.00;103786.94;5039051;28;19960;-82
2022/01/13 15:41:48;;;;;;;;;;;;;;;5.29;100.00;103791.69;5057116;28;19948;-82
2022/01/13 15:44:13;;;;;;;;;;;;;;;5.24;100.00;103790.28;5040361;28;19921;-83
2022/01/13 15:46:38;;;;;;;;;;;;;;;5.22;100.00;103782.28;5038873;28;19920;-82
2022/01/13 15:49:04;;;;;;;;;;;;;;;5.21;100.00;103777.81;5039071;28;19920;-83
2022/01/13 15:51:29;;;;;;;;;;;;;;;5.11;100.00;103782.81;5039528;28;20284;-84
2022/01/13 15:53:57;;;;;;;;;;;;;;;5.14;100.00;103784.09;5038701;28;19921;-84
2022/01/13 15:56:22;;;;;;;;;;;;;;;5.07;100.00;103788.50;5036806;28;19925;-81
2022/01/13 15:58:48;;;;;;;;;;;;;;;5.12;100.00;103789.91;5037283;28;19928;-82
2022/01/13 16:01:14;;;;;;;;;;;;;;;5.12;100.00;103793.44;5038348;28;20042;-84
2022/01/13 16:03:39;;;;;;;;;;;;;;;5.13;100.00;103789.16;5037672;28;19920;-84
2022/01/13 16:06:05;;;;;;;;;;;;;;;5.14;100.00;103788.38;5037320;28;19960;-84
2022/01/13 16:08:30;;;;;;;;;;;;;;;5.10;100.00;103786.22;5043557;28;19931;-86
2022/01/13 16:10:59;;;;;;;;;;;;;;;5.08;100.00;103793.91;5073768;28;19921;-83
2022/01/13 16:13:36;;;;;;;;;;;;;;;5.11;100.00;103791.59;5040411;28;19924;-84
2022/01/13 16:16:01;;;;;;;;;;;;;;;5.12;100.00;103795.13;5040615;28;19970;-83
2022/01/13 16:18:26;;;;;;;;;;;;;;;5.09;100.00;103790.50;5040101;28;19932;-83
2022/01/13 16:20:53;;;;;;;;;;;;;;;5.10;100.00;103794.06;5051140;28;19921;-83
2022/01/13 16:23:21;;;;;;;;;;;;;;;5.13;100.00;103792.69;5060725;28;20007;-83
2022/01/13 16:25:46;;;;;;;;;;;;;;;5.08;100.00;103791.28;5037699;28;19928;-84
2022/01/13 16:28:13;;;;;;;;;;;;;;;5.10;100.00;103789.75;5035966;28;19925;-84
2022/01/13 16:30:39;;;;;;;;;;;;;;;5.10;100.00;103800.19;5036420;28;19928;-84
2022/01/13 16:33:25;;;;;;;;;;;;;;;5.02;100.00;103799.38;5036809;28;20414;-83
2022/01/13 16:35:55;;;;;;;;;;;;;;;5.07;100.00;103798.97;5043907;28;19936;-84
2022/01/13 16:38:41;;;;;;;;;;;;;;;5.08;100.00;103795.56;5033741;28;19925;-83
2022/01/13 16:41:14;;;;;;;;;;;;;;;5.07;100.00;103796.34;5051906;28;19921;-84
2022/01/13 19:11:00;;;;;;;;;;;;;;;4.75;100.00;103793.84;4981203;28;19929;-81
2022/01/13 19:36:04;;;;;;;;;;;;;;;4.75;100.00;103786.00;4966927;28;20282;-80
2022/01/13 19:39:09;;;;;;;;;;;;;;;4.71;100.00;103781.22;4983256;28;19921;-80
2022/01/13 19:42:29;;;;;;;;;;;;;;;4.66;100.00;103766.00;4972866;28;19930;-81
2022/01/13 19:45:38;;;;;;;;;;;;;;;4.64;100.00;103767.50;4897019;29;19924;-81
2022/01/13 19:48:47;;;;;;;;;;;;;;;4.61;100.00;103766.25;4879759;29;19923;-81
2022/01/13 19:51:56;;;;;;;;;;;;;;;4.55;100.00;103766.53;4883322;29;19984;-81
2022/01/13 19:55:14;;;;;;;;;;;;;;;4.53;100.00;103751.47;4878832;29;20105;-81
2022/01/13 20:28:05;;;;;;;;;;;;;;;4.38;100.00;103762.13;4885265;29;19926;-81
2022/01/13 20:31:17;;;;;;;;;;;;;;;4.31;100.00;103768.34;4982532;28;19922;-82
2022/01/13 20:37:52;;;;;;;;;;;;;;;4.30;100.00;103769.13;4941347;29;19985;-82
2022/01/13 20:41:02;;;;;;;;;;;;;;;4.24;100.00;103772.72;4897768;29;20424;-83
2022/01/13 20:44:28;;;;;;;;;;;;;;;4.22;99.56;103772.56;4915015;29;19963;-83
2022/01/13 20:50:47;;;;;;;;;;;;;;;4.14;93.65;103781.25;4868904;29;19973;-82
2022/01/13 20:57:09;;;;;;;;;;;;;;;4.01;93.83;103772.84;4879657;29;19938;-83
2022/01/13 21:00:19;;;;;;;;;;;;;;;3.95;94.48;103767.91;4883824;29;20030;-82
2022/01/13 21:09:19;;;;;;;;;;;;;;;3.79;93.61;103765.25;4860373;29;19988;-82
2022/01/13 21:37:14;;;;;;;;;;;;;;;3.50;78.82;103757.78;4921955;29;19934;-82
2022/01/13 21:40:41;;;;;;;;;;;;;;;3.49;77.65;103755.91;4927144;29;20301;-82
2022/01/13 21:44:04;;;;;;;;;;;;;;;3.50;75.72;103764.66;4951419;29;19922;-82
2022/01/13 21:50:28;;;;;;;;;;;;;;;3.48;72.97;103759.28;4902916;29;19929;-83